createdAt,value
2023-09-06T00:01:10.496Z,11.93
2023-09-06T00:11:16.649Z,11.85
2023-09-06T00:21:23.332Z,11.72
2023-09-06T00:31:30.089Z,11.64
2023-09-06T00:41:41.463Z,11.52
2023-09-06T00:51:47.899Z,11.42
2023-09-06T01:01:54.034Z,11.40
2023-09-06T01:12:00.669Z,11.31
2023-09-06T01:22:10.787Z,11.21
2023-09-06T01:32:17.186Z,11.12
2023-09-06T01:42:23.838Z,11.03
2023-09-06T01:52:29.616Z,10.98
2023-09-06T02:02:35.490Z,10.92
2023-09-06T02:12:41.887Z,10.83
2023-09-06T02:22:49.660Z,10.76
2023-09-06T02:32:58.343Z,10.72
2023-09-06T02:43:05.801Z,10.72
2023-09-06T02:53:21.287Z,10.74
2023-09-06T03:03:29.683Z,10.79
2023-09-06T03:13:35.840Z,10.74
2023-09-06T03:23:45.669Z,10.65
2023-09-06T03:33:52.169Z,10.56
2023-09-06T03:43:58.036Z,10.51
2023-09-06T03:54:07.022Z,10.43
2023-09-06T04:04:14.282Z,10.38
2023-09-06T04:14:20.100Z,10.40
2023-09-06T04:24:26.010Z,10.48
2023-09-06T04:34:31.831Z,10.69
2023-09-06T04:44:37.601Z,10.98
2023-09-06T04:54:44.531Z,11.34
2023-09-06T05:04:51.696Z,11.80
2023-09-06T05:14:58.357Z,12.42
2023-09-06T05:25:04.171Z,14.83
2023-09-06T05:35:12.798Z,21.03
2023-09-06T05:45:20.034Z,27.02
2023-09-06T05:55:25.992Z,32.15
2023-09-06T06:05:32.056Z,36.31
2023-09-06T06:15:37.890Z,39.01
2023-09-06T06:25:43.904Z,41.31
2023-09-06T06:35:49.965Z,43.89
2023-09-06T06:45:57.525Z,46.13
2023-09-06T06:56:03.368Z,47.91
2023-09-06T07:06:09.565Z,49.47
2023-09-06T07:16:15.557Z,50.89
2023-09-06T07:26:22.885Z,52.07
2023-09-06T07:36:28.707Z,52.72
2023-09-06T07:46:35.536Z,53.32
2023-09-06T07:56:41.413Z,54.33
2023-09-06T08:06:45.864Z,55.25
2023-09-06T08:16:51.830Z,55.74
2023-09-06T08:26:57.698Z,55.51
2023-09-06T08:37:03.630Z,54.27
2023-09-06T08:47:14.040Z,48.48
2023-09-06T08:57:20.090Z,41.89
2023-09-06T09:07:26.625Z,38.08
2023-09-06T09:17:38.013Z,35.59
2023-09-06T09:27:57.675Z,33.55
2023-09-06T09:38:07.322Z,32.09
2023-09-06T09:48:13.732Z,31.17
2023-09-06T09:58:19.176Z,30.42
2023-09-06T10:08:25.731Z,29.70
2023-09-06T10:18:30.624Z,28.94
2023-09-06T10:28:37.205Z,28.40
2023-09-06T10:39:20.015Z,27.69
2023-09-06T10:49:30.890Z,27.08
2023-09-06T10:59:44.623Z,26.66
2023-09-06T11:09:51.893Z,26.41
2023-09-06T11:19:56.574Z,26.21
2023-09-06T11:30:16.882Z,25.95
2023-09-06T11:40:23.655Z,25.83
2023-09-06T11:50:32.078Z,25.98
2023-09-06T12:00:44.649Z,26.16
2023-09-06T12:10:51.806Z,26.20
2023-09-06T12:20:58.949Z,26.12
2023-09-06T12:31:16.678Z,25.91
2023-09-06T12:41:23.672Z,25.66
2023-09-06T12:51:29.637Z,25.51
2023-09-06T13:01:35.636Z,25.39
2023-09-06T13:11:41.701Z,25.34
2023-09-06T13:21:47.456Z,25.33
2023-09-06T13:31:53.535Z,25.27
2023-09-06T13:41:59.538Z,25.19
2023-09-06T13:52:06.492Z,25.11
2023-09-06T14:02:12.447Z,25.09
2023-09-06T14:12:18.734Z,25.10
2023-09-06T14:22:25.293Z,25.11
2023-09-06T14:32:31.135Z,25.07
2023-09-06T14:42:37.364Z,25.02
2023-09-06T14:52:43.149Z,24.98
2023-09-06T15:02:49.023Z,24.94
2023-09-06T15:12:54.988Z,24.86
2023-09-06T15:23:00.707Z,24.80
2023-09-06T15:33:07.465Z,24.72
2023-09-06T15:43:13.872Z,24.61
2023-09-06T15:53:19.593Z,24.47
2023-09-06T16:03:25.762Z,24.29
2023-09-06T16:13:31.834Z,24.06
2023-09-06T16:23:37.662Z,23.77
2023-09-06T16:33:43.605Z,23.47
2023-09-06T16:43:49.461Z,23.18
2023-09-06T16:53:55.190Z,22.83
2023-09-06T17:04:01.420Z,22.42
2023-09-06T17:14:29.374Z,21.95
2023-09-06T17:24:33.628Z,21.47
2023-09-06T17:34:39.425Z,20.96
2023-09-06T17:44:45.442Z,20.52
2023-09-06T17:54:51.756Z,20.07
2023-09-06T18:04:58.162Z,19.73
2023-09-06T18:15:09.911Z,19.44
2023-09-06T18:25:15.835Z,19.08
2023-09-06T18:35:22.373Z,18.86
2023-09-06T18:45:28.300Z,18.62
2023-09-06T18:55:34.853Z,18.26
2023-09-06T19:05:41.521Z,17.91
2023-09-06T19:15:49.223Z,17.62
2023-09-06T19:25:57.362Z,17.41
2023-09-06T19:36:01.927Z,17.21
2023-09-06T19:46:07.760Z,17.08
2023-09-06T19:56:18.190Z,17.03
2023-09-06T20:06:23.880Z,16.84
2023-09-06T20:16:30.798Z,16.63
2023-09-06T20:26:36.741Z,16.56
2023-09-06T20:36:42.820Z,16.43
2023-09-06T20:46:48.602Z,16.19
2023-09-06T20:56:54.533Z,15.86
2023-09-06T21:07:00.525Z,15.58
2023-09-06T21:17:07.088Z,15.37
2023-09-06T21:27:13.184Z,15.17
2023-09-06T21:37:18.989Z,15.03
2023-09-06T21:47:24.968Z,14.88
2023-09-06T21:57:31.003Z,14.68
2023-09-06T22:07:36.892Z,14.51
2023-09-06T22:17:43.525Z,14.35
2023-09-06T22:27:51.410Z,14.21
2023-09-06T22:37:57.399Z,14.07
2023-09-06T22:48:03.376Z,13.93
2023-09-06T22:58:09.332Z,13.78
2023-09-06T23:08:16.194Z,13.66
2023-09-06T23:18:23.274Z,13.52
2023-09-06T23:28:30.798Z,13.41
2023-09-06T23:38:37.022Z,13.27
2023-09-06T23:48:43.254Z,13.16
2023-09-06T23:58:49.018Z,13.02
